createdAt,value
2018-08-06T00:02:04.136Z,101933.98
2018-08-06T00:04:32.839Z,101928.70
2018-08-06T00:07:00.889Z,101927.96
2018-08-06T00:09:29.007Z,101926.43
2018-08-06T00:11:57.053Z,101931.16
2018-08-06T00:14:25.100Z,101928.44
2018-08-06T00:16:53.502Z,101931.69
2018-08-06T00:19:21.560Z,101924.02
2018-08-06T00:21:49.672Z,101924.60
2018-08-06T00:24:17.776Z,101923.95
2018-08-06T00:26:45.833Z,101922.23
2018-08-06T00:29:13.880Z,101917.70
2018-08-06T00:31:41.928Z,101918.78
2018-08-06T00:34:10.016Z,101917.67
2018-08-06T00:36:38.171Z,101919.55
2018-08-06T00:39:08.592Z,101920.05
2018-08-06T00:41:36.707Z,101914.48
2018-08-06T00:44:05.228Z,101914.16
2018-08-06T00:46:33.328Z,101916.06
2018-08-06T00:49:01.430Z,101913.97
2018-08-06T00:51:29.650Z,101916.23
2018-08-06T00:53:58.223Z,101911.13
2018-08-06T00:56:26.311Z,101917.01
2018-08-06T00:58:54.385Z,101920.30
2018-08-06T01:01:22.471Z,101907.59
2018-08-06T01:03:50.807Z,101911.70
2018-08-06T01:06:18.875Z,101915.56
2018-08-06T01:08:46.912Z,101909.30
2018-08-06T01:11:15.006Z,101914.20
2018-08-06T01:13:43.044Z,101915.75
2018-08-06T01:16:11.092Z,101912.26
2018-08-06T01:18:39.168Z,101916.37
2018-08-06T01:21:07.207Z,101907.42
2018-08-06T01:23:35.253Z,101912.69
2018-08-06T01:26:03.297Z,101915.73
2018-08-06T01:28:31.369Z,101915.88
2018-08-06T01:30:59.403Z,101913.78
2018-08-06T01:33:27.464Z,101917.48
2018-08-06T01:35:55.495Z,101914.34
2018-08-06T01:38:23.544Z,101907.27
2018-08-06T01:40:51.615Z,101908.56
2018-08-06T01:43:19.664Z,101905.06
2018-08-06T01:45:47.728Z,101903.12
2018-08-06T01:48:15.819Z,101900.80
2018-08-06T01:50:43.843Z,101901.28
2018-08-06T01:53:11.875Z,101912.00
2018-08-06T01:55:39.912Z,101909.11
2018-08-06T01:58:07.963Z,101900.27
2018-08-06T02:00:36.008Z,101901.53
2018-08-06T02:03:04.056Z,101905.27
2018-08-06T02:05:32.121Z,101900.76
2018-08-06T02:08:00.160Z,101903.09
2018-08-06T02:10:28.222Z,101897.38
2018-08-06T02:12:56.308Z,101896.45
2018-08-06T02:15:24.348Z,101895.41
2018-08-06T02:17:52.407Z,101895.77
2018-08-06T02:20:20.435Z,101897.53
2018-08-06T02:22:48.859Z,101892.27
2018-08-06T02:25:16.924Z,101887.62
2018-08-06T02:27:45.064Z,101887.41
2018-08-06T02:30:14.392Z,101883.91
2018-08-06T02:32:42.489Z,101882.05
2018-08-06T02:35:12.645Z,101879.39
2018-08-06T02:37:41.580Z,101878.22
2018-08-06T02:40:12.013Z,101876.15
2018-08-06T02:42:40.064Z,101880.66
2018-08-06T02:45:09.056Z,101874.16
2018-08-06T02:47:37.648Z,101869.28
2018-08-06T02:50:06.548Z,101865.78
2018-08-06T02:52:34.608Z,101868.33
2018-08-06T02:55:02.968Z,101864.83
2018-08-06T02:57:31.051Z,101860.31
2018-08-06T02:59:59.083Z,101860.18
2018-08-06T03:02:27.140Z,101858.56
2018-08-06T03:04:55.229Z,101863.69
2018-08-06T03:07:23.272Z,101863.44
2018-08-06T03:09:51.364Z,101863.58
2018-08-06T03:12:19.399Z,101863.91
2018-08-06T03:14:47.499Z,101864.52
2018-08-06T03:17:15.536Z,101861.58
2018-08-06T03:19:43.577Z,101863.58
2018-08-06T03:22:11.612Z,101860.91
2018-08-06T03:24:39.683Z,101854.86
2018-08-06T03:27:07.720Z,101855.78
2018-08-06T03:29:35.779Z,101855.31
2018-08-06T03:32:03.803Z,101854.61
2018-08-06T03:34:31.872Z,101865.30
2018-08-06T03:36:59.905Z,101863.23
2018-08-06T03:39:28.016Z,101861.12
2018-08-06T03:41:56.064Z,101859.86
2018-08-06T03:44:24.129Z,101857.17
2018-08-06T03:46:52.199Z,101850.87
2018-08-06T03:49:20.300Z,101851.02
2018-08-06T03:51:48.341Z,101854.73
2018-08-06T03:54:16.399Z,101859.50
2018-08-06T03:56:44.464Z,101853.45
2018-08-06T03:59:12.510Z,101853.20
2018-08-06T04:01:40.552Z,101854.13
2018-08-06T04:04:08.600Z,101856.13
2018-08-06T04:06:36.633Z,101855.52
2018-08-06T04:09:06.605Z,101855.77
2018-08-06T04:11:34.644Z,101851.94
2018-08-06T04:14:02.723Z,101848.69
2018-08-06T04:16:35.424Z,101847.86
2018-08-06T04:19:03.482Z,101852.62
2018-08-06T04:21:31.564Z,101853.80
2018-08-06T04:23:59.609Z,101850.19
2018-08-06T04:26:27.647Z,101852.98
2018-08-06T04:28:55.688Z,101856.59
2018-08-06T04:31:23.755Z,101848.44
2018-08-06T04:33:51.833Z,101851.47
2018-08-06T04:36:19.864Z,101857.27
2018-08-06T04:38:48.167Z,101859.70
2018-08-06T04:41:16.232Z,101858.56
2018-08-06T04:43:44.316Z,101856.23
2018-08-06T04:46:12.377Z,101853.91
2018-08-06T04:48:40.424Z,101858.78
2018-08-06T04:51:08.488Z,101857.53
2018-08-06T04:53:36.564Z,101855.07
2018-08-06T04:56:04.616Z,101848.23
2018-08-06T04:58:32.669Z,101853.81
2018-08-06T05:01:00.719Z,101855.53
2018-08-06T05:03:28.798Z,101852.74
2018-08-06T05:05:56.840Z,101853.34
2018-08-06T05:08:24.876Z,101849.94
2018-08-06T05:10:52.920Z,101854.37
2018-08-06T05:13:20.983Z,101856.25
2018-08-06T05:15:49.059Z,101855.77
2018-08-06T05:18:17.124Z,101855.86
2018-08-06T05:20:45.192Z,101857.59
2018-08-06T05:23:13.221Z,101857.30
2018-08-06T05:25:41.298Z,101856.47
2018-08-06T05:28:09.341Z,101853.75
2018-08-06T05:30:37.400Z,101852.53
2018-08-06T05:33:05.432Z,101860.05
2018-08-06T05:35:33.501Z,101859.56
2018-08-06T05:38:01.539Z,101854.26
2018-08-06T05:40:29.588Z,101856.74
2018-08-06T05:42:57.622Z,101851.43
2018-08-06T05:45:25.708Z,101856.13
2018-08-06T05:47:53.748Z,101856.52
2018-08-06T05:50:21.804Z,101861.38
2018-08-06T05:52:49.831Z,101850.77
2018-08-06T05:55:17.919Z,101861.22
2018-08-06T05:57:45.963Z,101860.24
2018-08-06T06:00:16.503Z,101861.22
2018-08-06T06:02:45.208Z,101861.16
2018-08-06T06:05:13.259Z,101862.57
2018-08-06T06:07:41.752Z,101864.97
2018-08-06T06:10:11.261Z,101859.58
2018-08-06T06:12:39.307Z,101859.23
2018-08-06T06:15:12.544Z,101863.06
2018-08-06T06:17:41.111Z,101858.65
2018-08-06T06:20:09.851Z,101859.55
2018-08-06T06:22:37.928Z,101859.63
2018-08-06T06:25:08.198Z,101854.06
2018-08-06T06:27:36.564Z,101853.30
2018-08-06T06:30:06.108Z,101848.86
2018-08-06T06:32:34.239Z,101845.43
2018-08-06T06:35:02.324Z,101841.61
2018-08-06T06:37:30.477Z,101844.84
2018-08-06T06:39:58.550Z,101847.84
2018-08-06T06:42:26.692Z,101848.02
2018-08-06T06:44:54.795Z,101853.86
2018-08-06T06:47:22.832Z,101848.84
2018-08-06T06:49:50.927Z,101846.44
2018-08-06T06:52:19.020Z,101850.37
2018-08-06T06:54:47.104Z,101844.39
2018-08-06T06:57:15.560Z,101850.43
2018-08-06T06:59:43.836Z,101845.76
2018-08-06T07:02:12.259Z,101837.13
2018-08-06T07:04:40.372Z,101831.02
2018-08-06T07:07:08.484Z,101834.50
2018-08-06T07:09:36.711Z,101836.67
2018-08-06T07:12:05.111Z,101829.83
2018-08-06T07:14:33.208Z,101836.05
2018-08-06T07:17:01.285Z,101837.19
2018-08-06T07:19:29.452Z,101831.46
2018-08-06T07:21:57.506Z,101828.14
2018-08-06T07:24:25.552Z,101831.52
2018-08-06T07:26:53.640Z,101823.09
2018-08-06T07:29:21.702Z,101834.62
2018-08-06T07:31:49.757Z,101831.62
2018-08-06T07:34:17.819Z,101824.01
2018-08-06T07:36:45.884Z,101833.94
2018-08-06T07:39:13.941Z,101830.28
2018-08-06T07:41:42.011Z,101826.81
2018-08-06T07:44:10.081Z,101826.78
2018-08-06T07:46:38.257Z,101818.45
2018-08-06T07:49:06.418Z,101815.56
2018-08-06T07:51:34.647Z,101817.09
2018-08-06T07:54:02.743Z,101813.40
2018-08-06T07:56:30.792Z,101813.94
2018-08-06T07:58:58.896Z,101809.56
2018-08-06T08:01:26.956Z,101809.20
2018-08-06T08:03:55.068Z,101810.93
2018-08-06T08:06:23.170Z,101814.20
2018-08-06T08:08:51.192Z,101809.98
2018-08-06T08:11:19.240Z,101805.20
2018-08-06T08:13:47.284Z,101805.50
2018-08-06T08:16:15.340Z,101807.95
2018-08-06T08:18:43.383Z,101800.67
2018-08-06T08:21:11.754Z,101797.25
2018-08-06T08:23:39.796Z,101803.17
2018-08-06T08:26:07.868Z,101794.16
2018-08-06T08:28:35.980Z,101794.61
2018-08-06T08:31:04.063Z,101794.25
2018-08-06T08:33:32.099Z,101799.58
2018-08-06T08:36:00.143Z,101792.87
2018-08-06T08:38:28.195Z,101788.52
2018-08-06T08:40:56.240Z,101790.81
2018-08-06T08:43:24.288Z,101790.98
2018-08-06T08:45:52.344Z,101781.85
2018-08-06T08:48:20.404Z,101782.27
2018-08-06T08:50:48.468Z,101774.84
2018-08-06T08:53:16.508Z,101775.58
2018-08-06T08:55:44.582Z,101768.16
2018-08-06T08:58:12.695Z,101770.98
2018-08-06T09:00:40.748Z,101763.82
2018-08-06T09:03:08.813Z,101767.08
2018-08-06T09:05:36.860Z,101769.32
2018-08-06T09:08:04.927Z,101764.83
2018-08-06T09:10:32.973Z,101764.66
2018-08-06T09:13:01.072Z,101760.75
2018-08-06T09:15:29.143Z,101762.41
2018-08-06T09:17:57.202Z,101767.61
2018-08-06T09:20:26.012Z,101758.84
2018-08-06T09:22:54.090Z,101752.01
2018-08-06T09:25:22.140Z,101750.17
2018-08-06T09:27:51.408Z,101743.17
2018-08-06T09:30:21.735Z,101737.55
2018-08-06T09:32:51.240Z,101741.21
2018-08-06T09:35:19.804Z,101740.22
2018-08-06T09:37:47.912Z,101740.97
2018-08-06T09:40:17.367Z,101740.84
2018-08-06T09:42:46.091Z,101736.94
2018-08-06T09:45:15.265Z,101745.70
2018-08-06T09:47:44.568Z,101740.42
2018-08-06T09:50:13.252Z,101736.72
2018-08-06T09:52:42.148Z,101733.16
2018-08-06T09:55:12.376Z,101737.17
2018-08-06T09:57:40.760Z,101727.36
2018-08-06T10:01:21.282Z,101725.79
2018-08-06T10:03:49.361Z,101728.59
2018-08-06T10:06:17.485Z,101716.95
2018-08-06T10:08:45.532Z,101725.72
2018-08-06T10:11:13.589Z,101716.65
2018-08-06T10:13:41.692Z,101713.35
2018-08-06T10:16:09.752Z,101720.10
2018-08-06T10:18:37.820Z,101712.75
2018-08-06T10:21:06.131Z,101715.16
2018-08-06T10:23:34.245Z,101705.08
2018-08-06T10:26:02.299Z,101704.30
2018-08-06T10:28:30.384Z,101702.19
2018-08-06T10:30:58.588Z,101690.69
2018-08-06T10:33:26.687Z,101694.72
2018-08-06T10:35:54.744Z,101690.54
2018-08-06T10:38:22.821Z,101683.98
2018-08-06T10:40:50.875Z,101684.44
2018-08-06T10:43:18.935Z,101676.11
2018-08-06T10:45:46.975Z,101675.61
2018-08-06T10:48:15.043Z,101676.06
2018-08-06T10:50:43.080Z,101671.92
2018-08-06T10:53:11.164Z,101671.27
2018-08-06T10:55:39.236Z,101663.09
2018-08-06T10:58:07.292Z,101662.03
2018-08-06T11:00:35.379Z,101662.34
2018-08-06T11:03:03.453Z,101656.02
2018-08-06T11:05:31.488Z,101650.09
2018-08-06T11:07:59.572Z,101649.23
2018-08-06T11:10:27.620Z,101647.77
2018-08-06T11:12:55.703Z,101642.09
2018-08-06T11:15:25.131Z,101636.71
2018-08-06T11:17:55.151Z,101633.09
2018-08-06T11:20:23.912Z,101626.83
2018-08-06T11:22:51.983Z,101623.73
2018-08-06T11:25:21.425Z,101623.37
2018-08-06T11:27:49.655Z,101619.55
2018-08-06T11:30:19.405Z,101614.09
2018-08-06T11:32:48.194Z,101609.75
2018-08-06T11:35:16.572Z,101609.91
2018-08-06T11:37:44.660Z,101599.67
2018-08-06T11:40:13.960Z,101593.66
2018-08-06T11:42:42.763Z,101603.40
2018-08-06T11:45:13.044Z,101595.87
2018-08-06T11:47:41.118Z,101583.03
2018-08-06T11:50:09.597Z,101593.85
2018-08-06T11:52:37.669Z,101590.58
2018-08-06T11:55:06.456Z,101582.87
2018-08-06T11:57:34.549Z,101580.92
2018-08-06T12:00:02.912Z,101579.09
2018-08-06T12:02:30.971Z,101574.72
2018-08-06T12:04:59.043Z,101573.03
2018-08-06T12:07:27.205Z,101565.11
2018-08-06T12:09:55.289Z,101565.41
2018-08-06T12:12:23.372Z,101559.55
2018-08-06T12:14:51.445Z,101554.59
2018-08-06T12:17:19.507Z,101556.42
2018-08-06T12:19:47.584Z,101538.27
2018-08-06T12:22:15.637Z,101545.05
2018-08-06T12:24:43.740Z,101532.98
2018-08-06T12:27:11.823Z,101532.98
2018-08-06T12:29:39.921Z,101531.34
2018-08-06T12:32:07.996Z,101525.86
2018-08-06T12:34:36.079Z,101532.56
2018-08-06T12:37:04.130Z,101527.67
2018-08-06T12:39:32.248Z,101533.02
2018-08-06T12:42:00.328Z,101531.45
2018-08-06T12:44:28.391Z,101526.44
2018-08-06T12:46:56.448Z,101519.46
2018-08-06T12:49:24.547Z,101513.91
2018-08-06T12:51:52.602Z,101508.09
2018-08-06T12:54:20.673Z,101504.89
2018-08-06T12:56:48.753Z,101509.88
2018-08-06T12:59:16.816Z,101505.13
2018-08-06T13:01:44.893Z,101500.44
2018-08-06T13:04:12.994Z,101497.27
2018-08-06T13:06:42.946Z,101494.88
2018-08-06T13:09:11.123Z,101489.80
2018-08-06T13:11:39.858Z,101487.00
2018-08-06T13:14:08.668Z,101485.41
2018-08-06T13:16:37.497Z,101484.67
2018-08-06T13:19:06.425Z,101476.68
2018-08-06T13:21:34.964Z,101480.14
2018-08-06T13:24:04.151Z,101485.27
2018-08-06T13:26:34.378Z,101473.56
2018-08-06T13:29:03.003Z,101466.58
2018-08-06T13:31:31.130Z,101467.44
2018-08-06T13:33:59.252Z,101461.09
2018-08-06T13:36:27.420Z,101458.78
2018-08-06T13:38:55.593Z,101456.11
2018-08-06T13:41:23.733Z,101448.75
2018-08-06T13:43:51.826Z,101450.70
2018-08-06T13:46:19.967Z,101448.31
2018-08-06T13:48:48.055Z,101440.24
2018-08-06T13:51:16.238Z,101441.02
2018-08-06T13:53:44.373Z,101426.84
2018-08-06T13:56:12.541Z,101429.98
2018-08-06T13:58:40.671Z,101420.23
2018-08-06T14:01:08.916Z,101425.22
2018-08-06T14:03:37.114Z,101428.16
2018-08-06T14:06:05.312Z,101416.95
2018-08-06T14:08:33.532Z,101421.78
2018-08-06T14:11:01.689Z,101413.04
2018-08-06T14:13:29.859Z,101415.89
2018-08-06T14:15:57.995Z,101407.63
2018-08-06T14:18:26.130Z,101401.85
2018-08-06T14:20:54.217Z,101397.70
2018-08-06T14:23:22.365Z,101394.17
2018-08-06T14:25:50.561Z,101396.25
2018-08-06T14:28:18.712Z,101383.02
2018-08-06T14:30:46.868Z,101387.87
2018-08-06T14:33:14.996Z,101381.04
2018-08-06T14:35:43.080Z,101380.16
2018-08-06T14:38:11.132Z,101378.92
2018-08-06T14:40:39.286Z,101372.30
2018-08-06T14:43:07.455Z,101376.19
2018-08-06T14:45:36.076Z,101380.55
2018-08-06T14:48:04.300Z,101374.70
2018-08-06T14:50:32.371Z,101369.13
2018-08-06T14:53:00.467Z,101372.86
2018-08-06T14:55:28.561Z,101366.83
2018-08-06T14:57:56.738Z,101360.14
2018-08-06T15:00:24.876Z,101355.44
2018-08-06T15:02:53.716Z,101350.80
2018-08-06T15:05:21.892Z,101344.55
2018-08-06T15:07:49.980Z,101354.87
2018-08-06T15:10:18.067Z,101349.34
2018-08-06T15:12:46.206Z,101341.09
2018-08-06T15:15:15.385Z,101346.30
2018-08-06T15:17:44.084Z,101343.63
2018-08-06T15:20:13.845Z,101339.34
2018-08-06T15:22:41.932Z,101335.20
2018-08-06T15:25:16.849Z,101333.91
2018-08-06T15:27:44.956Z,101326.70
2018-08-06T15:30:13.077Z,101329.37
2018-08-06T15:32:41.180Z,101334.78
2018-08-06T15:35:10.083Z,101325.84
2018-08-06T15:37:39.211Z,101326.83
2018-08-06T15:40:10.322Z,101324.67
2018-08-06T15:42:38.450Z,101325.98
2018-08-06T15:45:06.712Z,101322.23
2018-08-06T15:47:34.815Z,101312.35
2018-08-06T15:50:02.908Z,101313.42
2018-08-06T15:52:31.052Z,101309.14
2018-08-06T15:54:59.164Z,101310.12
2018-08-06T15:57:27.265Z,101312.58
2018-08-06T15:59:55.323Z,101305.16
2018-08-06T16:02:23.401Z,101303.55
2018-08-06T16:04:51.592Z,101298.70
2018-08-06T16:07:19.681Z,101293.16
2018-08-06T16:09:47.803Z,101293.67
2018-08-06T16:12:15.892Z,101296.12
2018-08-06T16:14:44.016Z,101289.88
2018-08-06T16:17:12.146Z,101288.13
2018-08-06T16:19:40.267Z,101281.36
2018-08-06T16:22:09.197Z,101285.88
2018-08-06T16:24:37.290Z,101277.47
2018-08-06T16:27:05.412Z,101278.47
2018-08-06T16:29:33.784Z,101276.23
2018-08-06T16:32:01.894Z,101276.10
2018-08-06T16:34:29.993Z,101271.48
2018-08-06T16:36:58.115Z,101272.16
2018-08-06T16:39:26.196Z,101269.74
2018-08-06T16:41:54.276Z,101265.13
2018-08-06T16:44:22.364Z,101262.41
2018-08-06T16:46:50.617Z,101260.52
2018-08-06T16:49:18.599Z,101260.83
2018-08-06T16:51:46.675Z,101255.58
2018-08-06T16:54:14.807Z,101255.29
2018-08-06T16:56:42.910Z,101259.10
2018-08-06T16:59:11.040Z,101254.48
2018-08-06T17:01:39.110Z,101254.66
2018-08-06T17:04:07.239Z,101258.64
2018-08-06T17:06:35.371Z,101255.45
2018-08-06T17:09:04.044Z,101257.34
2018-08-06T17:11:32.178Z,101252.73
2018-08-06T17:14:00.357Z,101250.81
2018-08-06T17:16:28.432Z,101250.36
2018-08-06T17:18:56.540Z,101247.34
2018-08-06T17:21:24.599Z,101246.33
2018-08-06T17:23:52.683Z,101246.98
2018-08-06T17:26:20.752Z,101248.57
2018-08-06T17:28:48.824Z,101251.75
2018-08-06T17:31:16.888Z,101248.41
2018-08-06T17:33:44.964Z,101246.97
2018-08-06T17:36:13.123Z,101244.91
2018-08-06T17:38:41.213Z,101245.52
2018-08-06T17:41:09.271Z,101245.84
2018-08-06T17:43:37.327Z,101244.56
2018-08-06T17:46:05.597Z,101244.82
2018-08-06T17:48:33.659Z,101243.06
2018-08-06T17:51:01.717Z,101240.80
2018-08-06T17:53:29.764Z,101241.86
2018-08-06T17:55:57.832Z,101241.96
2018-08-06T17:58:25.963Z,101237.44
2018-08-06T18:00:54.122Z,101235.30
2018-08-06T18:03:22.312Z,101240.00
2018-08-06T18:05:50.377Z,101240.52
2018-08-06T18:08:18.479Z,101242.48
2018-08-06T18:10:46.580Z,101236.83
2018-08-06T18:13:14.686Z,101231.51
2018-08-06T18:15:42.743Z,101224.86
2018-08-06T18:18:10.808Z,101239.23
2018-08-06T18:20:38.853Z,101241.03
2018-08-06T18:23:06.916Z,101238.39
2018-08-06T18:25:34.986Z,101233.52
2018-08-06T18:28:03.064Z,101238.02
2018-08-06T18:30:31.116Z,101238.06
2018-08-06T18:32:59.188Z,101234.66
2018-08-06T18:35:27.248Z,101239.81
2018-08-06T18:37:55.340Z,101238.94
2018-08-06T18:40:23.405Z,101238.11
2018-08-06T18:42:51.465Z,101241.52
2018-08-06T18:45:20.829Z,101233.08
2018-08-06T18:47:49.820Z,101232.59
2018-08-06T18:50:18.480Z,101237.08
2018-08-06T18:52:47.520Z,101236.85
2018-08-06T18:55:16.049Z,101234.18
2018-08-06T18:57:44.691Z,101229.34
2018-08-06T19:00:21.166Z,101236.05
2018-08-06T19:02:49.474Z,101234.67
2018-08-06T19:05:17.641Z,101231.36
2018-08-06T19:07:45.609Z,101232.02
2018-08-06T19:10:13.733Z,101226.70
2018-08-06T19:12:47.143Z,101232.41
2018-08-06T19:15:15.256Z,101233.41
2018-08-06T19:17:48.745Z,101235.20
2018-08-06T19:20:16.861Z,101232.84
2018-08-06T19:22:44.920Z,101243.30
2018-08-06T19:25:18.274Z,101236.11
2018-08-06T19:27:46.352Z,101239.39
2018-08-06T19:30:14.414Z,101235.75
2018-08-06T19:32:42.580Z,101242.52
2018-08-06T19:35:10.707Z,101242.44
2018-08-06T19:37:46.652Z,101238.48
2018-08-06T19:40:15.201Z,101239.09
2018-08-06T19:42:48.708Z,101244.06
2018-08-06T19:45:16.816Z,101238.72
2018-08-06T19:47:45.245Z,101237.39
2018-08-06T19:50:50.185Z,101240.45
2018-08-06T19:53:18.248Z,101244.53
2018-08-06T19:55:51.737Z,101244.30
2018-08-06T19:58:19.805Z,101245.36
2018-08-06T20:00:47.871Z,101251.92
2018-08-06T20:03:15.944Z,101247.02
2018-08-06T20:05:44.000Z,101242.55
2018-08-06T20:08:12.407Z,101243.03
2018-08-06T20:10:40.506Z,101245.20
2018-08-06T20:13:08.570Z,101240.45
2018-08-06T20:15:36.616Z,101233.74
2018-08-06T20:18:04.700Z,101232.50
2018-08-06T20:20:32.761Z,101240.73
2018-08-06T20:23:00.811Z,101238.67
2018-08-06T20:25:28.864Z,101234.21
2018-08-06T20:27:56.939Z,101238.45
2018-08-06T20:30:25.012Z,101235.16
2018-08-06T20:32:53.075Z,101232.48
2018-08-06T20:35:21.218Z,101232.99
2018-08-06T20:37:49.261Z,101233.28
2018-08-06T20:40:17.323Z,101233.73
2018-08-06T20:42:46.096Z,101233.20
2018-08-06T20:45:15.719Z,101232.28
2018-08-06T20:47:44.180Z,101230.54
2018-08-06T20:50:14.925Z,101228.77
2018-08-06T20:52:43.024Z,101236.73
2018-08-06T20:55:11.600Z,101233.80
2018-08-06T20:57:39.792Z,101229.27
2018-08-06T21:00:10.062Z,101234.36
2018-08-06T21:02:38.297Z,101234.25
2018-08-06T21:05:06.416Z,101229.71
2018-08-06T21:07:34.484Z,101234.82
2018-08-06T21:10:02.561Z,101231.45
2018-08-06T21:12:30.621Z,101228.28
2018-08-06T21:14:58.715Z,101229.75
2018-08-06T21:17:26.805Z,101229.41
2018-08-06T21:19:54.906Z,101231.08
2018-08-06T21:22:22.968Z,101234.76
2018-08-06T21:24:51.044Z,101234.80
2018-08-06T21:27:19.151Z,101240.28
2018-08-06T21:29:47.220Z,101240.11
2018-08-06T21:32:15.356Z,101239.16
2018-08-06T21:34:43.428Z,101234.95
2018-08-06T21:37:11.544Z,101234.78
2018-08-06T21:39:39.631Z,101232.98
2018-08-06T21:42:07.740Z,101231.42
2018-08-06T21:44:35.834Z,101231.03
2018-08-06T21:47:03.912Z,101234.91
2018-08-06T21:49:31.980Z,101238.38
2018-08-06T21:52:00.069Z,101234.38
2018-08-06T21:54:28.114Z,101232.60
2018-08-06T21:56:56.164Z,101224.38
2018-08-06T21:59:24.343Z,101231.03
2018-08-06T22:01:52.455Z,101229.64
2018-08-06T22:04:20.516Z,101232.91
2018-08-06T22:06:48.555Z,101231.31
2018-08-06T22:09:16.616Z,101230.53
2018-08-06T22:11:44.676Z,101226.31
2018-08-06T22:14:12.783Z,101232.81
2018-08-06T22:16:40.859Z,101221.56
2018-08-06T22:19:10.242Z,101231.64
2018-08-06T22:21:38.540Z,101235.28
2018-08-06T22:24:07.104Z,101234.48
2018-08-06T22:26:35.307Z,101229.30
2018-08-06T22:29:03.494Z,101232.48
2018-08-06T22:31:31.560Z,101227.66
2018-08-06T22:33:59.758Z,101236.55
2018-08-06T22:36:28.068Z,101229.09
2018-08-06T22:38:56.104Z,101231.92
2018-08-06T22:41:24.851Z,101232.73
2018-08-06T22:43:53.087Z,101237.98
2018-08-06T22:46:21.399Z,101234.17
2018-08-06T22:48:49.473Z,101234.56
2018-08-06T22:51:17.560Z,101235.17
2018-08-06T22:53:45.609Z,101231.97
2018-08-06T22:56:13.667Z,101233.76
2018-08-06T22:58:41.704Z,101231.14
2018-08-06T23:01:10.924Z,101231.97
2018-08-06T23:03:38.979Z,101236.95
2018-08-06T23:06:07.687Z,101230.92
2018-08-06T23:08:35.776Z,101235.75
2018-08-06T23:11:03.815Z,101229.31
2018-08-06T23:13:31.887Z,101233.91
2018-08-06T23:15:59.968Z,101231.51
2018-08-06T23:18:28.052Z,101228.08
2018-08-06T23:20:56.109Z,101233.89
2018-08-06T23:23:24.182Z,101227.64
2018-08-06T23:25:52.248Z,101226.83
2018-08-06T23:28:20.320Z,101223.01
2018-08-06T23:30:48.354Z,101225.20
2018-08-06T23:33:16.417Z,101223.79
2018-08-06T23:35:44.528Z,101223.97
2018-08-06T23:38:12.576Z,101216.53
2018-08-06T23:40:40.653Z,101215.91
2018-08-06T23:43:08.712Z,101210.02
2018-08-06T23:45:36.803Z,101213.23
2018-08-06T23:48:05.311Z,101208.38
2018-08-06T23:50:33.356Z,101201.52
2018-08-06T23:53:01.460Z,101203.92
2018-08-06T23:55:29.471Z,101208.31
